Latest Coastal Weather Observations for Rowley Shoals

IDW60701

Issued at 12:35 pm WST Thursday 23 October 2014 (issued every 10 minutes, with the page automatically refreshed every 10 minutes)

About coastal observations | Map of coastal stations | Coastal observations for WA | Marine services | Other Formats
Station Details ID: 200713 Name: ROWLEY SHOALS Lat: -17.52 Lon: 118.95 Height: 0.0 m
Data from the previous 72 hours. | See also: Recent months for locations in Western Australia
Date/Time
WST
Temp

°C
Wind Pressure Rain
since 9am
mm
Weather Cloud Vis
km
Sea
Height
m
Swell
Dir
 
Speed
knots
Gust
knots
hPa Trend Height
m
Period
s
Dir
23/12:30pm - WNW 9 10 1010.8 - - - - - - - - -
23/12:00pm - WNW 8 8 1011.0 - - - - - - - - -
23/11:30am - WNW 7 8 1011.5 - - - - - - - - -
23/11:00am - W 7 8 1011.6 - - - - - - - - -
23/10:30am - WNW 7 8 1011.7 - - - - - - - - -
23/10:00am - WNW 6 8 1011.6 - - - - - - - - -
23/09:30am - W 8 9 1011.4 - - - - - - - - -
23/09:00am - W 9 - 1011.5 - - - - - - - - -
23/08:30am - W 10 12 1011.3 - - - - - - - - -
23/08:00am - WSW 10 14 1011.3 - - - - - - - - -
23/07:30am - W 11 14 1011.0 - - - - - - - - -
23/07:00am - W 10 13 1010.9 - - - - - - - - -
23/06:30am - W 11 13 1010.5 - - - - - - - - -
23/06:00am - W 11 13 1010.4 - - - - - - - - -
23/05:30am - W 10 13 1010.4 - - - - - - - - -
23/05:00am - W 11 13 1010.4 - - - - - - - - -
23/04:30am - W 12 13 1009.9 - - - - - - - - -
23/04:00am - W 11 13 1009.8 - - - - - - - - -
23/03:30am - W 13 15 1009.5 - - - - - - - - -
23/03:00am - W 8 8 1010.0 - - - - - - - - -
23/02:30am - W 6 7 1010.3 - - - - - - - - -
23/02:00am - WNW 5 5 1010.7 - - - - - - - - -
23/01:30am - W 3 4 1011.1 - - - - - - - - -
23/01:00am - W 4 5 1011.4 - - - - - - - - -
23/12:30am - WSW 7 8 1011.5 - - - - - - - - -
23/12:00am - WSW 9 10 1011.5 - - - - - - - - -
 
Date/Time
WST
Temp

°C
Wind Pressure Rain
since 9am
mm
Weather Cloud Vis
km
Sea
Height
m
Swell
Dir
 
Speed
knots
Gust
knots
hPa Trend Height
m
Period
s
Dir
22/11:30pm - WSW 10 11 1011.6 - - - - - - - - -
22/11:00pm - WSW 10 14 1011.7 - - - - - - - - -
22/10:30pm - WSW 14 17 1011.6 - - - - - - - - -
22/10:00pm - WSW 15 17 1011.8 - - - - - - - - -
22/09:30pm - WSW 14 17 1011.7 - - - - - - - - -
22/09:00pm - W 14 16 1011.8 - - - - - - - - -
22/08:30pm - W 14 16 1011.8 - - - - - - - - -
22/08:00pm - W 14 17 1011.7 - - - - - - - - -
22/07:30pm - W 16 19 1011.6 - - - - - - - - -
22/07:00pm - W 14 16 1011.3 - - - - - - - - -
22/06:30pm - W 14 16 1011.0 - - - - - - - - -
22/06:00pm - W 13 15 1010.6 - - - - - - - - -
22/05:30pm - WSW 14 15 1010.4 - - - - - - - - -
22/05:00pm - WSW 13 14 1010.2 - - - - - - - - -
22/04:30pm - WSW 13 14 1010.0 - - - - - - - - -
22/04:00pm - SW 12 14 1010.1 - - - - - - - - -
22/03:30pm - SW 12 14 1010.3 - - - - - - - - -
22/03:00pm - SW 13 15 1010.4 - - - - - - - - -
22/02:30pm - SW 14 16 1010.4 - - - - - - - - -
22/02:00pm - SW 14 17 1010.7 - - - - - - - - -
22/01:30pm - SW 15 17 1010.9 - - - - - - - - -
22/01:00pm - SW 15 15 1011.2 - - - - - - - - -
22/12:30pm - SW 13 15 1012.1 - - - - - - - - -
22/12:00pm - SW 12 13 1012.5 - - - - - - - - -
22/11:30am - SSW 12 15 1012.8 - - - - - - - - -
22/11:00am - SSW 14 15 1012.8 - - - - - - - - -
22/10:30am - SSW 13 15 1013.0 - - - - - - - - -
22/10:00am - SSW 13 15 1013.0 - - - - - - - - -
22/09:30am - SSW 12 14 1013.3 - - - - - - - - -
22/09:00am - SSW 13 16 1013.2 - - - - - - - - -
22/08:30am - SSW 13 15 1013.1 - - - - - - - - -
22/08:00am - SSW 12 13 1013.0 - - - - - - - - -
22/07:30am - SSW 11 13 1013.2 - - - - - - - - -
22/07:00am - SSW 11 14 1012.8 - - - - - - - - -
22/06:30am - SW 14 17 1012.1 - - - - - - - - -
22/06:00am - SW 18 23 1011.6 - - - - - - - - -
22/05:30am - SW 19 21 1010.9 - - - - - - - - -
22/05:00am - SW 17 20 1011.0 - - - - - - - - -
22/04:30am - SW 16 18 1011.0 - - - - - - - - -
22/04:00am - SW 13 15 1011.2 - - - - - - - - -
22/03:30am - SW 16 19 1010.9 - - - - - - - - -
22/03:00am - SW 16 18 1010.8 - - - - - - - - -
22/02:30am - SW 16 19 1010.8 - - - - - - - - -
22/02:00am - SW 17 21 1010.8 - - - - - - - - -
22/01:30am - SW 17 20 1011.0 - - - - - - - - -
22/01:00am - SW 18 19 1011.1 - - - - - - - - -
22/12:30am - SW 17 20 1011.4 - - - - - - - - -
22/12:00am - SW 17 22 1011.7 - - - - - - - - -
 
Date/Time
WST
Temp

°C
Wind Pressure Rain
since 9am
mm
Weather Cloud Vis
km
Sea
Height
m
Swell
Dir
 
Speed
knots
Gust
knots
hPa Trend Height
m
Period
s
Dir
21/11:30pm - WSW 20 24 1011.6 - - - - - - - - -
21/11:00pm - WSW 18 21 1012.1 - - - - - - - - -
21/10:30pm - WSW 17 19 1013.1 - - - - - - - - -
21/10:00pm - WSW 17 19 1013.6 - - - - - - - - -
21/09:30pm - WSW 16 18 1014.1 - - - - - - - - -
21/09:00pm - WSW 15 16 1014.2 - - - - - - - - -
21/08:30pm - WSW 13 15 1014.0 - - - - - - - - -
21/08:00pm - WSW 12 14 1013.9 - - - - - - - - -
21/07:30pm - WSW 12 13 1013.7 - - - - - - - - -
21/07:00pm - WSW 11 12 1013.7 - - - - - - - - -
21/06:30pm - WSW 11 12 1013.5 - - - - - - - - -
21/06:00pm - WSW 11 12 1013.3 - - - - - - - - -
21/05:30pm - WSW 11 12 1013.1 - - - - - - - - -
21/05:00pm - WSW 11 12 1012.8 - - - - - - - - -
21/04:30pm - WSW 10 11 1012.6 - - - - - - - - -
21/04:00pm - SW 10 12 1012.6 - - - - - - - - -
21/03:30pm - SW 10 11 1012.5 - - - - - - - - -
21/03:00pm - SSW 12 15 1012.4 - - - - - - - - -
21/02:30pm - SSW 15 17 1012.2 - - - - - - - - -
21/02:00pm - SSW 16 18 1012.4 - - - - - - - - -
21/01:30pm - SSW 17 20 1012.6 - - - - - - - - -
21/01:00pm - SSW 17 21 1012.8 - - - - - - - - -
21/12:30pm - SSW 19 23 1013.1 - - - - - - - - -
21/12:00pm - SSW 19 22 1013.5 - - - - - - - - -
21/11:30am - SSW 18 21 1014.2 - - - - - - - - -
21/11:00am - SSW 18 20 1014.6 - - - - - - - - -
21/10:30am - SSW 16 19 1015.1 - - - - - - - - -
21/10:00am - SSW 16 19 1015.4 - - - - - - - - -
21/09:30am - SSW 17 19 1015.8 - - - - - - - - -
21/09:00am - SSW 17 19 1015.8 - - - - - - - - -
21/08:30am - SSW 16 19 1015.9 - - - - - - - - -
21/08:00am - SSW 17 21 1015.6 - - - - - - - - -
21/07:30am - SSW 18 20 1015.4 - - - - - - - - -
21/07:00am - SW 17 19 1015.1 - - - - - - - - -
21/06:30am - SW 17 20 1014.7 - - - - - - - - -
21/06:00am - SW 15 18 1014.6 - - - - - - - - -
21/05:30am - SW 14 16 1014.1 - - - - - - - - -
21/05:00am - SW 14 15 1013.9 - - - - - - - - -
21/04:30am - SW 12 13 1013.8 - - - - - - - - -
21/04:00am - SW 11 12 1013.7 - - - - - - - - -
21/03:30am - SW 10 12 1013.6 - - - - - - - - -
21/03:00am - SW 11 13 1013.5 - - - - - - - - -
21/02:30am - SW 13 15 1013.4 - - - - - - - - -
21/02:00am - SW 14 15 1013.4 - - - - - - - - -
21/01:30am - SW 14 16 1013.5 - - - - - - - - -
21/01:00am - SW 13 14 1013.6 - - - - - - - - -
21/12:30am - SW 13 15 1014.0 - - - - - - - - -
21/12:00am - SW 12 14 1014.1 - - - - - - - - -
 
Date/Time
WST
Temp

°C
Wind Pressure Rain
since 9am
mm
Weather Cloud Vis
km
Sea
Height
m
Swell
Dir
 
Speed
knots
Gust
knots
hPa Trend Height
m
Period
s
Dir
20/11:30pm - SW 11 13 1014.5 - - - - - - - - -
20/11:00pm - SW 10 11 1014.8 - - - - - - - - -
20/10:30pm - SW 11 12 1015.1 - - - - - - - - -
20/10:00pm - SW 11 12 1015.1 - - - - - - - - -
20/09:30pm - SW 10 12 1015.3 - - - - - - - - -
20/09:00pm - SW 10 11 1015.2 - - - - - - - - -
20/08:30pm - SW 10 11 1014.8 - - - - - - - - -
20/08:00pm - SW 10 11 1014.8 - - - - - - - - -
20/07:30pm - SW 11 13 1014.5 - - - - - - - - -
20/07:00pm - SW 11 13 1014.2 - - - - - - - - -
20/06:30pm - SSW 11 13 1013.7 - - - - - - - - -
20/06:00pm - SSW 12 13 1013.5 - - - - - - - - -
20/05:30pm - SSW 9 11 1013.2 - - - - - - - - -
20/05:00pm - SSW 10 12 1013.0 - - - - - - - - -
20/04:30pm - SSW 10 12 1013.0 - - - - - - - - -
20/04:00pm - SSW 11 13 1012.9 - - - - - - - - -
20/03:30pm - SSW 10 13 1013.0 - - - - - - - - -
20/03:00pm - S 9 11 1013.0 - - - - - - - - -
20/02:30pm - SSW 9 11 1013.1 - - - - - - - - -
20/02:00pm - SSW 9 11 1013.4 - - - - - - - - -
20/01:30pm - SSW 8 10 1013.7 - - - - - - - - -
20/01:00pm - SSW 9 11 1013.7 - - - - - - - - -

Other Formats:

Comma delimited format used in spreadsheet applications
http://www.bom.gov.au/fwo/IDW60701/IDW60701.94207.axf

JavaScript Object Notation format (JSON) in row-major order
http://www.bom.gov.au/fwo/IDW60701/IDW60701.94207.json